Terminal Aerodrome Forecast
Issued by NWS Wilmington, NC

Home | Current Version | Previous Version | Text Only | Print | Product List | Glossary On
Versions: 1 2 3 4 5 6 7 8 9 10 11 12
000
FTUS42 KILM 232330
TAFMYR
TAF
KMYR 232330Z 2400/2424 09007KT P6SM BKN120
     FM240600 VRB04KT P6SM SCT250
      TEMPO 2409/2413 1SM BR SCT003
     FM241300 04009KT P6SM SCT250
     FM241800 09010KT P6SM FEW250
      AMD LTD TO CLD VIS AND WIND TIL 241100=

USA.gov is the U.S. government's official web portal to all federal, state and local government web resources and services.